sensor_id;sensor_type;location;lat;lon;timestamp;temperature;humidity
11091;DHT22;5599;52.210;21.046;2023-12-22T00:02:03;6.10;1.00
11091;DHT22;5599;52.210;21.046;2023-12-22T00:04:32;6.00;1.00
11091;DHT22;5599;52.210;21.046;2023-12-22T00:07:01;6.10;99.90
11091;DHT22;5599;52.210;21.046;2023-12-22T00:09:30;6.10;99.90
11091;DHT22;5599;52.210;21.046;2023-12-22T00:11:59;6.10;99.90
11091;DHT22;5599;52.210;21.046;2023-12-22T00:14:29;6.20;99.90
11091;DHT22;5599;52.210;21.046;2023-12-22T00:16:59;6.10;99.90
11091;DHT22;5599;52.210;21.046;2023-12-22T00:19:28;6.20;1.00
11091;DHT22;5599;52.210;21.046;2023-12-22T00:21:57;6.20;1.00
11091;DHT22;5599;52.210;21.046;2023-12-22T00:24:27;6.10;1.00
11091;DHT22;5599;52.210;21.046;2023-12-22T00:26:56;6.10;1.00
11091;DHT22;5599;52.210;21.046;2023-12-22T00:29:25;6.10;1.00
11091;DHT22;5599;52.210;21.046;2023-12-22T00:31:57;6.10;1.00
11091;DHT22;5599;52.210;21.046;2023-12-22T00:34:26;6.10;99.90
11091;DHT22;5599;52.210;21.046;2023-12-22T00:36:56;6.10;99.90
11091;DHT22;5599;52.210;21.046;2023-12-22T00:39:25;6.10;99.90
11091;DHT22;5599;52.210;21.046;2023-12-22T00:41:54;6.10;1.00
11091;DHT22;5599;52.210;21.046;2023-12-22T00:44:23;6.00;1.00
11091;DHT22;5599;52.210;21.046;2023-12-22T00:46:55;6.10;1.00
11091;DHT22;5599;52.210;21.046;2023-12-22T00:49:25;6.10;99.90
11091;DHT22;5599;52.210;21.046;2023-12-22T00:51:55;6.00;1.00
11091;DHT22;5599;52.210;21.046;2023-12-22T00:54:24;6.00;1.00
11091;DHT22;5599;52.210;21.046;2023-12-22T00:56:54;6.00;99.90
11091;DHT22;5599;52.210;21.046;2023-12-22T00:59:23;5.90;99.90
11091;DHT22;5599;52.210;21.046;2023-12-22T01:01:52;5.90;1.00
11091;DHT22;5599;52.210;21.046;2023-12-22T01:04:21;5.90;1.00
11091;DHT22;5599;52.210;21.046;2023-12-22T01:06:52;5.90;99.90
11091;DHT22;5599;52.210;21.046;2023-12-22T01:09:23;5.90;1.00
11091;DHT22;5599;52.210;21.046;2023-12-22T01:11:52;5.90;99.90
11091;DHT22;5599;52.210;21.046;2023-12-22T01:14:21;5.80;99.90
11091;DHT22;5599;52.210;21.046;2023-12-22T01:16:50;5.80;1.00
11091;DHT22;5599;52.210;21.046;2023-12-22T01:19:19;5.90;99.90
11091;DHT22;5599;52.210;21.046;2023-12-22T01:21:48;5.80;99.90
11091;DHT22;5599;52.210;21.046;2023-12-22T01:24:21;5.80;99.90
11091;DHT22;5599;52.210;21.046;2023-12-22T01:26:50;5.70;28.60
11091;DHT22;5599;52.210;21.046;2023-12-22T01:29:19;5.70;1.00
11091;DHT22;5599;52.210;21.046;2023-12-22T01:31:48;5.70;1.00
11091;DHT22;5599;52.210;21.046;2023-12-22T01:34:17;5.70;99.90
11091;DHT22;5599;52.210;21.046;2023-12-22T01:36:47;5.60;1.00
11091;DHT22;5599;52.210;21.046;2023-12-22T01:39:17;5.60;1.00
11091;DHT22;5599;52.210;21.046;2023-12-22T01:41:47;5.60;99.90
11091;DHT22;5599;52.210;21.046;2023-12-22T01:44:17;5.70;1.00
11091;DHT22;5599;52.210;21.046;2023-12-22T01:46:46;5.70;1.00
11091;DHT22;5599;52.210;21.046;2023-12-22T01:49:15;5.70;1.00
11091;DHT22;5599;52.210;21.046;2023-12-22T01:51:45;5.70;98.40
11091;DHT22;5599;52.210;21.046;2023-12-22T01:54:15;5.70;99.90
11091;DHT22;5599;52.210;21.046;2023-12-22T01:56:44;5.70;99.90
11091;DHT22;5599;52.210;21.046;2023-12-22T01:59:15;5.70;99.90
11091;DHT22;5599;52.210;21.046;2023-12-22T02:01:45;5.80;99.90
11091;DHT22;5599;52.210;21.046;2023-12-22T02:04:15;5.70;1.00
11091;DHT22;5599;52.210;21.046;2023-12-22T02:06:45;5.70;1.00
11091;DHT22;5599;52.210;21.046;2023-12-22T02:09:14;5.70;57.10
11091;DHT22;5599;52.210;21.046;2023-12-22T02:11:43;5.70;1.00
11091;DHT22;5599;52.210;21.046;2023-12-22T02:14:12;5.70;1.00
11091;DHT22;5599;52.210;21.046;2023-12-22T02:16:46;5.70;1.00
11091;DHT22;5599;52.210;21.046;2023-12-22T02:19:26;5.70;1.00
11091;DHT22;5599;52.210;21.046;2023-12-22T02:22:01;5.60;99.90
11091;DHT22;5599;52.210;21.046;2023-12-22T02:24:37;5.70;99.90
11091;DHT22;5599;52.210;21.046;2023-12-22T02:27:14;5.70;1.00
11091;DHT22;5599;52.210;21.046;2023-12-22T02:29:49;5.80;99.90
11091;DHT22;5599;52.210;21.046;2023-12-22T02:32:23;5.70;1.00
11091;DHT22;5599;52.210;21.046;2023-12-22T02:34:55;5.70;1.00
11091;DHT22;5599;52.210;21.046;2023-12-22T02:37:26;5.80;1.00
11091;DHT22;5599;52.210;21.046;2023-12-22T02:39:58;5.80;99.90
11091;DHT22;5599;52.210;21.046;2023-12-22T02:42:29;5.80;99.90
11091;DHT22;5599;52.210;21.046;2023-12-22T02:44:58;5.80;1.00
11091;DHT22;5599;52.210;21.046;2023-12-22T02:47:29;5.90;1.00
11091;DHT22;5599;52.210;21.046;2023-12-22T02:50:00;5.80;1.00
11091;DHT22;5599;52.210;21.046;2023-12-22T02:52:29;5.80;99.90
11091;DHT22;5599;52.210;21.046;2023-12-22T02:55:01;5.80;99.90
11091;DHT22;5599;52.210;21.046;2023-12-22T02:57:30;5.80;1.00
11091;DHT22;5599;52.210;21.046;2023-12-22T03:00:00;5.80;1.00
11091;DHT22;5599;52.210;21.046;2023-12-22T03:02:29;5.80;1.00
11091;DHT22;5599;52.210;21.046;2023-12-22T03:04:59;5.70;99.90
11091;DHT22;5599;52.210;21.046;2023-12-22T03:07:28;5.70;99.90
11091;DHT22;5599;52.210;21.046;2023-12-22T03:09:57;5.70;1.00
11091;DHT22;5599;52.210;21.046;2023-12-22T03:12:28;5.70;1.00
11091;DHT22;5599;52.210;21.046;2023-12-22T03:14:57;5.80;99.90
11091;DHT22;5599;52.210;21.046;2023-12-22T03:17:26;5.80;50.80
11091;DHT22;5599;52.210;21.046;2023-12-22T03:19:55;5.80;99.90
11091;DHT22;5599;52.210;21.046;2023-12-22T03:22:25;5.80;99.90
11091;DHT22;5599;52.210;21.046;2023-12-22T03:24:54;5.80;99.90
11091;DHT22;5599;52.210;21.046;2023-12-22T03:27:23;5.60;1.00
11091;DHT22;5599;52.210;21.046;2023-12-22T03:29:53;5.60;1.00
11091;DHT22;5599;52.210;21.046;2023-12-22T03:32:22;5.60;99.90
11091;DHT22;5599;52.210;21.046;2023-12-22T03:34:52;5.50;31.70
11091;DHT22;5599;52.210;21.046;2023-12-22T03:37:21;5.40;99.90
11091;DHT22;5599;52.210;21.046;2023-12-22T03:39:50;5.40;6.90
11091;DHT22;5599;52.210;21.046;2023-12-22T03:42:19;5.30;99.90
11091;DHT22;5599;52.210;21.046;2023-12-22T03:44:48;5.30;1.00
11091;DHT22;5599;52.210;21.046;2023-12-22T03:47:19;5.30;99.90
11091;DHT22;5599;52.210;21.046;2023-12-22T03:49:48;5.30;99.90
11091;DHT22;5599;52.210;21.046;2023-12-22T03:52:18;5.30;99.90
11091;DHT22;5599;52.210;21.046;2023-12-22T03:54:47;5.30;1.00
11091;DHT22;5599;52.210;21.046;2023-12-22T03:57:16;5.30;1.00
11091;DHT22;5599;52.210;21.046;2023-12-22T03:59:46;5.20;48.90
11091;DHT22;5599;52.210;21.046;2023-12-22T04:02:15;5.20;99.90
11091;DHT22;5599;52.210;21.046;2023-12-22T04:04:47;5.20;99.90
11091;DHT22;5599;52.210;21.046;2023-12-22T04:07:16;5.10;1.00
11091;DHT22;5599;52.210;21.046;2023-12-22T04:09:45;5.20;1.00
11091;DHT22;5599;52.210;21.046;2023-12-22T04:12:15;5.20;23.00
11091;DHT22;5599;52.210;21.046;2023-12-22T04:14:44;5.20;99.90
11091;DHT22;5599;52.210;21.046;2023-12-22T04:17:13;5.20;1.00
11091;DHT22;5599;52.210;21.046;2023-12-22T04:19:43;5.20;11.00
11091;DHT22;5599;52.210;21.046;2023-12-22T04:22:13;5.20;99.90
11091;DHT22;5599;52.210;21.046;2023-12-22T04:24:42;5.20;1.00
11091;DHT22;5599;52.210;21.046;2023-12-22T04:27:12;5.20;1.00
11091;DHT22;5599;52.210;21.046;2023-12-22T04:29:41;5.20;1.00
11091;DHT22;5599;52.210;21.046;2023-12-22T04:32:10;5.20;99.90
11091;DHT22;5599;52.210;21.046;2023-12-22T04:34:39;5.20;99.90
11091;DHT22;5599;52.210;21.046;2023-12-22T04:37:09;5.20;99.90
11091;DHT22;5599;52.210;21.046;2023-12-22T04:39:40;5.30;1.00
11091;DHT22;5599;52.210;21.046;2023-12-22T04:42:09;5.30;1.00
11091;DHT22;5599;52.210;21.046;2023-12-22T04:44:39;5.20;1.00
11091;DHT22;5599;52.210;21.046;2023-12-22T04:47:09;5.10;1.00
11091;DHT22;5599;52.210;21.046;2023-12-22T04:49:40;5.20;99.90
11091;DHT22;5599;52.210;21.046;2023-12-22T04:52:10;5.20;99.90
11091;DHT22;5599;52.210;21.046;2023-12-22T04:54:41;5.10;1.00
11091;DHT22;5599;52.210;21.046;2023-12-22T04:57:10;5.10;99.90
11091;DHT22;5599;52.210;21.046;2023-12-22T04:59:43;5.10;1.00
11091;DHT22;5599;52.210;21.046;2023-12-22T05:02:12;5.10;1.00
11091;DHT22;5599;52.210;21.046;2023-12-22T05:04:41;5.00;1.00
11091;DHT22;5599;52.210;21.046;2023-12-22T05:07:10;5.00;99.90
11091;DHT22;5599;52.210;21.046;2023-12-22T05:09:42;5.00;1.00
11091;DHT22;5599;52.210;21.046;2023-12-22T05:12:11;4.90;99.90
11091;DHT22;5599;52.210;21.046;2023-12-22T05:14:40;4.90;1.00
11091;DHT22;5599;52.210;21.046;2023-12-22T05:17:09;4.90;37.70
11091;DHT22;5599;52.210;21.046;2023-12-22T05:19:38;4.80;1.00
11091;DHT22;5599;52.210;21.046;2023-12-22T05:22:07;4.80;1.00
11091;DHT22;5599;52.210;21.046;2023-12-22T05:24:37;4.80;1.00
11091;DHT22;5599;52.210;21.046;2023-12-22T05:27:08;4.80;1.00
11091;DHT22;5599;52.210;21.046;2023-12-22T05:29:37;4.70;1.00
11091;DHT22;5599;52.210;21.046;2023-12-22T05:32:06;4.80;1.00
11091;DHT22;5599;52.210;21.046;2023-12-22T05:34:35;4.80;1.00
11091;DHT22;5599;52.210;21.046;2023-12-22T05:37:05;4.80;99.90
11091;DHT22;5599;52.210;21.046;2023-12-22T05:39:34;4.70;99.90
11091;DHT22;5599;52.210;21.046;2023-12-22T05:42:03;4.70;99.90
11091;DHT22;5599;52.210;21.046;2023-12-22T05:44:34;4.70;1.00
11091;DHT22;5599;52.210;21.046;2023-12-22T05:47:03;4.70;1.00
11091;DHT22;5599;52.210;21.046;2023-12-22T05:49:32;4.80;1.00
11091;DHT22;5599;52.210;21.046;2023-12-22T05:52:02;4.80;1.00
11091;DHT22;5599;52.210;21.046;2023-12-22T05:54:32;4.70;99.90
11091;DHT22;5599;52.210;21.046;2023-12-22T05:57:01;4.70;1.00
11091;DHT22;5599;52.210;21.046;2023-12-22T05:59:34;4.70;1.00
11091;DHT22;5599;52.210;21.046;2023-12-22T06:02:03;4.70;1.00
11091;DHT22;5599;52.210;21.046;2023-12-22T06:04:32;4.60;1.00
11091;DHT22;5599;52.210;21.046;2023-12-22T06:07:02;4.60;1.00
11091;DHT22;5599;52.210;21.046;2023-12-22T06:09:32;4.60;1.00
11091;DHT22;5599;52.210;21.046;2023-12-22T06:12:01;4.60;1.00
11091;DHT22;5599;52.210;21.046;2023-12-22T06:14:30;4.60;1.00
11091;DHT22;5599;52.210;21.046;2023-12-22T06:17:01;4.60;99.90
11091;DHT22;5599;52.210;21.046;2023-12-22T06:19:30;4.60;99.90
11091;DHT22;5599;52.210;21.046;2023-12-22T06:22:00;4.60;1.00
11091;DHT22;5599;52.210;21.046;2023-12-22T06:24:29;4.70;99.90
11091;DHT22;5599;52.210;21.046;2023-12-22T06:26:58;4.70;1.00
11091;DHT22;5599;52.210;21.046;2023-12-22T06:29:27;4.70;99.90
11091;DHT22;5599;52.210;21.046;2023-12-22T06:31:58;4.80;22.30
11091;DHT22;5599;52.210;21.046;2023-12-22T06:34:29;4.80;1.00
11091;DHT22;5599;52.210;21.046;2023-12-22T06:36:58;4.80;99.90
11091;DHT22;5599;52.210;21.046;2023-12-22T06:39:27;4.90;1.00
11091;DHT22;5599;52.210;21.046;2023-12-22T06:41:57;4.80;1.00
11091;DHT22;5599;52.210;21.046;2023-12-22T06:44:26;4.90;99.90
11091;DHT22;5599;52.210;21.046;2023-12-22T06:46:55;5.00;99.90
11091;DHT22;5599;52.210;21.046;2023-12-22T06:49:24;4.90;1.00
11091;DHT22;5599;52.210;21.046;2023-12-22T06:51:55;5.00;1.00
11091;DHT22;5599;52.210;21.046;2023-12-22T06:54:24;5.00;99.90
11091;DHT22;5599;52.210;21.046;2023-12-22T06:56:53;5.00;99.90
11091;DHT22;5599;52.210;21.046;2023-12-22T06:59:22;5.00;99.90
11091;DHT22;5599;52.210;21.046;2023-12-22T07:01:53;5.10;21.70
11091;DHT22;5599;52.210;21.046;2023-12-22T07:04:39;5.00;1.00
11091;DHT22;5599;52.210;21.046;2023-12-22T07:07:20;5.00;1.00
11091;DHT22;5599;52.210;21.046;2023-12-22T07:09:49;5.10;1.00
11091;DHT22;5599;52.210;21.046;2023-12-22T07:12:18;5.10;1.00
11091;DHT22;5599;52.210;21.046;2023-12-22T07:14:48;5.10;1.00
11091;DHT22;5599;52.210;21.046;2023-12-22T07:17:17;5.10;1.00
11091;DHT22;5599;52.210;21.046;2023-12-22T07:19:46;5.10;1.00
11091;DHT22;5599;52.210;21.046;2023-12-22T07:22:15;5.10;1.00
11091;DHT22;5599;52.210;21.046;2023-12-22T07:24:46;5.00;24.30
11091;DHT22;5599;52.210;21.046;2023-12-22T07:27:17;5.00;46.40
11091;DHT22;5599;52.210;21.046;2023-12-22T07:29:46;5.00;99.90
11091;DHT22;5599;52.210;21.046;2023-12-22T07:32:16;5.00;1.00
11091;DHT22;5599;52.210;21.046;2023-12-22T07:34:45;5.00;1.00
11091;DHT22;5599;52.210;21.046;2023-12-22T07:37:15;4.90;1.00
11091;DHT22;5599;52.210;21.046;2023-12-22T07:39:45;5.00;1.00
11091;DHT22;5599;52.210;21.046;2023-12-22T07:42:15;5.00;1.00
11091;DHT22;5599;52.210;21.046;2023-12-22T07:44:44;5.00;38.90
11091;DHT22;5599;52.210;21.046;2023-12-22T07:47:13;5.00;1.00
11091;DHT22;5599;52.210;21.046;2023-12-22T07:49:42;5.00;1.00
11091;DHT22;5599;52.210;21.046;2023-12-22T07:52:14;5.00;1.00
11091;DHT22;5599;52.210;21.046;2023-12-22T07:54:46;5.00;1.00
11091;DHT22;5599;52.210;21.046;2023-12-22T07:57:15;5.00;1.00
11091;DHT22;5599;52.210;21.046;2023-12-22T07:59:44;5.00;1.00
11091;DHT22;5599;52.210;21.046;2023-12-22T08:02:13;5.00;1.00
11091;DHT22;5599;52.210;21.046;2023-12-22T08:04:42;5.10;1.00
11091;DHT22;5599;52.210;21.046;2023-12-22T08:07:12;5.20;1.00
11091;DHT22;5599;52.210;21.046;2023-12-22T08:09:41;5.50;1.00
11091;DHT22;5599;52.210;21.046;2023-12-22T08:12:12;5.60;1.00
11091;DHT22;5599;52.210;21.046;2023-12-22T08:14:41;5.80;1.00
11091;DHT22;5599;52.210;21.046;2023-12-22T08:17:11;6.00;1.00
11091;DHT22;5599;52.210;21.046;2023-12-22T08:19:41;6.10;1.00
11091;DHT22;5599;52.210;21.046;2023-12-22T08:22:14;6.20;1.00
11091;DHT22;5599;52.210;21.046;2023-12-22T08:24:44;6.20;1.00
11091;DHT22;5599;52.210;21.046;2023-12-22T08:27:17;6.20;1.00
11091;DHT22;5599;52.210;21.046;2023-12-22T08:29:46;6.20;1.00
11091;DHT22;5599;52.210;21.046;2023-12-22T08:32:16;6.40;1.00
11091;DHT22;5599;52.210;21.046;2023-12-22T08:34:45;6.50;1.00
11091;DHT22;5599;52.210;21.046;2023-12-22T08:37:15;6.50;1.00
11091;DHT22;5599;52.210;21.046;2023-12-22T08:39:44;6.50;99.90
11091;DHT22;5599;52.210;21.046;2023-12-22T08:42:13;6.70;99.90
11091;DHT22;5599;52.210;21.046;2023-12-22T08:44:44;6.80;99.90
11091;DHT22;5599;52.210;21.046;2023-12-22T08:47:13;7.00;99.90
11091;DHT22;5599;52.210;21.046;2023-12-22T08:49:42;7.00;99.90
11091;DHT22;5599;52.210;21.046;2023-12-22T08:52:12;6.90;99.90
11091;DHT22;5599;52.210;21.046;2023-12-22T08:54:41;6.90;99.90
11091;DHT22;5599;52.210;21.046;2023-12-22T08:57:11;6.90;99.90
11091;DHT22;5599;52.210;21.046;2023-12-22T08:59:40;7.00;99.90
11091;DHT22;5599;52.210;21.046;2023-12-22T09:02:11;7.20;99.90
11091;DHT22;5599;52.210;21.046;2023-12-22T09:04:40;7.30;99.90
11091;DHT22;5599;52.210;21.046;2023-12-22T09:07:10;7.10;99.90
11091;DHT22;5599;52.210;21.046;2023-12-22T09:09:40;7.00;99.90
11091;DHT22;5599;52.210;21.046;2023-12-22T09:12:10;7.20;99.90
11091;DHT22;5599;52.210;21.046;2023-12-22T09:14:40;7.30;99.90
11091;DHT22;5599;52.210;21.046;2023-12-22T09:17:10;7.20;99.90
11091;DHT22;5599;52.210;21.046;2023-12-22T09:19:39;7.30;99.90
11091;DHT22;5599;52.210;21.046;2023-12-22T09:22:10;7.20;99.90
11091;DHT22;5599;52.210;21.046;2023-12-22T09:24:39;7.00;99.90
11091;DHT22;5599;52.210;21.046;2023-12-22T09:27:08;7.00;99.90
11091;DHT22;5599;52.210;21.046;2023-12-22T09:29:38;7.00;99.90
11091;DHT22;5599;52.210;21.046;2023-12-22T09:32:07;7.10;99.90
11091;DHT22;5599;52.210;21.046;2023-12-22T09:34:37;7.20;99.90
11091;DHT22;5599;52.210;21.046;2023-12-22T09:37:08;7.10;99.90
11091;DHT22;5599;52.210;21.046;2023-12-22T09:39:37;7.10;99.90
11091;DHT22;5599;52.210;21.046;2023-12-22T09:42:06;7.10;99.90
11091;DHT22;5599;52.210;21.046;2023-12-22T09:44:36;7.10;99.90
11091;DHT22;5599;52.210;21.046;2023-12-22T09:47:07;7.20;99.90
11091;DHT22;5599;52.210;21.046;2023-12-22T09:49:42;7.20;99.90
11091;DHT22;5599;52.210;21.046;2023-12-22T09:52:12;7.30;99.90
11091;DHT22;5599;52.210;21.046;2023-12-22T09:54:43;7.30;99.90
11091;DHT22;5599;52.210;21.046;2023-12-22T09:57:14;7.20;1.00
11091;DHT22;5599;52.210;21.046;2023-12-22T09:59:54;7.00;1.00
11091;DHT22;5599;52.210;21.046;2023-12-22T10:02:25;7.00;99.90
11091;DHT22;5599;52.210;21.046;2023-12-22T10:04:56;6.90;99.90
11091;DHT22;5599;52.210;21.046;2023-12-22T10:07:26;6.80;99.90
11091;DHT22;5599;52.210;21.046;2023-12-22T10:09:57;6.70;99.90
11091;DHT22;5599;52.210;21.046;2023-12-22T10:12:27;6.50;99.90
11091;DHT22;5599;52.210;21.046;2023-12-22T10:14:59;6.30;99.90
11091;DHT22;5599;52.210;21.046;2023-12-22T10:17:29;6.20;99.90
11091;DHT22;5599;52.210;21.046;2023-12-22T10:20:00;6.10;1.00
11091;DHT22;5599;52.210;21.046;2023-12-22T10:22:31;5.60;99.90
11091;DHT22;5599;52.210;21.046;2023-12-22T10:25:01;5.00;99.90
11091;DHT22;5599;52.210;21.046;2023-12-22T10:27:30;4.40;1.00
11091;DHT22;5599;52.210;21.046;2023-12-22T10:30:00;4.00;1.00
11091;DHT22;5599;52.210;21.046;2023-12-22T10:32:30;3.70;99.90
11091;DHT22;5599;52.210;21.046;2023-12-22T10:35:01;3.30;99.90
11091;DHT22;5599;52.210;21.046;2023-12-22T10:37:30;3.00;1.00
11091;DHT22;5599;52.210;21.046;2023-12-22T10:40:04;2.90;1.00
11091;DHT22;5599;52.210;21.046;2023-12-22T10:42:33;2.60;99.90
11091;DHT22;5599;52.210;21.046;2023-12-22T10:45:04;2.50;1.00
11091;DHT22;5599;52.210;21.046;2023-12-22T10:47:34;2.30;93.20
11091;DHT22;5599;52.210;21.046;2023-12-22T10:50:05;2.20;99.90
11091;DHT22;5599;52.210;21.046;2023-12-22T10:52:35;2.10;99.90
11091;DHT22;5599;52.210;21.046;2023-12-22T10:55:04;1.90;1.00
11091;DHT22;5599;52.210;21.046;2023-12-22T10:57:34;1.90;1.00
11091;DHT22;5599;52.210;21.046;2023-12-22T11:00:07;1.80;1.00
11091;DHT22;5599;52.210;21.046;2023-12-22T11:02:38;1.80;1.00
11091;DHT22;5599;52.210;21.046;2023-12-22T11:05:14;1.80;1.00
11091;DHT22;5599;52.210;21.046;2023-12-22T11:07:49;1.80;1.00
11091;DHT22;5599;52.210;21.046;2023-12-22T11:10:20;1.80;1.00
11091;DHT22;5599;52.210;21.046;2023-12-22T11:12:50;1.90;1.00
11091;DHT22;5599;52.210;21.046;2023-12-22T11:15:21;2.00;1.00
11091;DHT22;5599;52.210;21.046;2023-12-22T11:17:52;2.10;1.00
11091;DHT22;5599;52.210;21.046;2023-12-22T11:20:25;2.10;1.00
11091;DHT22;5599;52.210;21.046;2023-12-22T11:22:57;2.30;99.90
11091;DHT22;5599;52.210;21.046;2023-12-22T11:25:27;2.40;99.90
11091;DHT22;5599;52.210;21.046;2023-12-22T11:27:59;2.50;99.90
11091;DHT22;5599;52.210;21.046;2023-12-22T11:30:29;2.60;1.00
11091;DHT22;5599;52.210;21.046;2023-12-22T11:33:00;2.70;1.00
11091;DHT22;5599;52.210;21.046;2023-12-22T11:35:31;2.70;99.90
11091;DHT22;5599;52.210;21.046;2023-12-22T11:38:01;2.80;99.90
11091;DHT22;5599;52.210;21.046;2023-12-22T11:40:31;2.90;99.90
11091;DHT22;5599;52.210;21.046;2023-12-22T11:43:01;3.00;90.50
11091;DHT22;5599;52.210;21.046;2023-12-22T11:45:32;3.10;1.00
11091;DHT22;5599;52.210;21.046;2023-12-22T11:48:07;3.10;1.00
11091;DHT22;5599;52.210;21.046;2023-12-22T11:50:39;3.20;1.00
11091;DHT22;5599;52.210;21.046;2023-12-22T11:53:19;3.30;1.00
11091;DHT22;5599;52.210;21.046;2023-12-22T11:56:06;3.40;99.90
11091;DHT22;5599;52.210;21.046;2023-12-22T11:58:37;3.40;99.90
11091;DHT22;5599;52.210;21.046;2023-12-22T12:01:08;3.40;1.00
11091;DHT22;5599;52.210;21.046;2023-12-22T12:03:41;3.40;1.00
11091;DHT22;5599;52.210;21.046;2023-12-22T12:06:31;3.40;1.00
11091;DHT22;5599;52.210;21.046;2023-12-22T12:09:04;3.40;1.00
11091;DHT22;5599;52.210;21.046;2023-12-22T12:12:08;3.50;1.00
11091;DHT22;5599;52.210;21.046;2023-12-22T12:14:41;3.50;1.00
11091;DHT22;5599;52.210;21.046;2023-12-22T12:17:15;3.50;1.00
11091;DHT22;5599;52.210;21.046;2023-12-22T12:19:47;3.50;1.00
11091;DHT22;5599;52.210;21.046;2023-12-22T12:22:18;3.50;99.90
11091;DHT22;5599;52.210;21.046;2023-12-22T12:24:52;3.50;99.90
11091;DHT22;5599;52.210;21.046;2023-12-22T12:27:22;3.40;99.90
11091;DHT22;5599;52.210;21.046;2023-12-22T12:29:52;3.50;1.00
11091;DHT22;5599;52.210;21.046;2023-12-22T12:32:23;3.50;1.00
11091;DHT22;5599;52.210;21.046;2023-12-22T12:34:54;3.50;1.00
11091;DHT22;5599;52.210;21.046;2023-12-22T12:37:26;3.60;1.00
11091;DHT22;5599;52.210;21.046;2023-12-22T12:39:58;3.60;1.00
11091;DHT22;5599;52.210;21.046;2023-12-22T12:42:29;3.50;99.90
11091;DHT22;5599;52.210;21.046;2023-12-22T12:44:59;3.50;1.00
11091;DHT22;5599;52.210;21.046;2023-12-22T12:47:29;3.50;1.00
11091;DHT22;5599;52.210;21.046;2023-12-22T12:49:59;3.40;1.00
11091;DHT22;5599;52.210;21.046;2023-12-22T12:52:30;3.40;49.70
11091;DHT22;5599;52.210;21.046;2023-12-22T12:54:59;3.40;99.90
11091;DHT22;5599;52.210;21.046;2023-12-22T12:57:29;3.30;99.90
11091;DHT22;5599;52.210;21.046;2023-12-22T12:59:58;3.30;1.00
11091;DHT22;5599;52.210;21.046;2023-12-22T13:02:27;3.30;1.00
11091;DHT22;5599;52.210;21.046;2023-12-22T13:04:57;3.20;1.00
11091;DHT22;5599;52.210;21.046;2023-12-22T13:07:27;3.20;1.00
11091;DHT22;5599;52.210;21.046;2023-12-22T13:09:58;3.10;99.90
11091;DHT22;5599;52.210;21.046;2023-12-22T13:12:27;3.00;99.90
11091;DHT22;5599;52.210;21.046;2023-12-22T13:15:02;3.00;99.90
11091;DHT22;5599;52.210;21.046;2023-12-22T13:17:31;3.00;99.90
11091;DHT22;5599;52.210;21.046;2023-12-22T13:20:03;2.90;99.90
11091;DHT22;5599;52.210;21.046;2023-12-22T13:22:33;2.90;99.90
11091;DHT22;5599;52.210;21.046;2023-12-22T13:25:04;2.90;99.90
11091;DHT22;5599;52.210;21.046;2023-12-22T13:27:44;2.90;1.00
11091;DHT22;5599;52.210;21.046;2023-12-22T13:30:14;2.90;1.00
11091;DHT22;5599;52.210;21.046;2023-12-22T13:32:44;2.90;1.00
11091;DHT22;5599;52.210;21.046;2023-12-22T13:35:13;2.90;1.00
11091;DHT22;5599;52.210;21.046;2023-12-22T13:37:43;2.90;99.90
11091;DHT22;5599;52.210;21.046;2023-12-22T13:40:14;2.80;1.00
11091;DHT22;5599;52.210;21.046;2023-12-22T13:42:44;2.80;1.00
11091;DHT22;5599;52.210;21.046;2023-12-22T13:45:13;2.90;1.00
11091;DHT22;5599;52.210;21.046;2023-12-22T13:47:43;2.80;1.00
11091;DHT22;5599;52.210;21.046;2023-12-22T13:50:15;2.80;1.00
11091;DHT22;5599;52.210;21.046;2023-12-22T13:52:45;2.80;1.00
11091;DHT22;5599;52.210;21.046;2023-12-22T13:55:19;2.80;1.00
11091;DHT22;5599;52.210;21.046;2023-12-22T13:57:59;2.80;1.00
11091;DHT22;5599;52.210;21.046;2023-12-22T14:00:29;2.80;1.00
11091;DHT22;5599;52.210;21.046;2023-12-22T14:03:01;2.80;1.00
11091;DHT22;5599;52.210;21.046;2023-12-22T14:05:31;2.80;1.00
11091;DHT22;5599;52.210;21.046;2023-12-22T14:08:03;2.70;1.00
11091;DHT22;5599;52.210;21.046;2023-12-22T14:10:34;2.70;1.00
11091;DHT22;5599;52.210;21.046;2023-12-22T14:13:03;2.70;1.00
11091;DHT22;5599;52.210;21.046;2023-12-22T14:15:32;2.70;1.00
11091;DHT22;5599;52.210;21.046;2023-12-22T14:18:11;2.70;1.00
11091;DHT22;5599;52.210;21.046;2023-12-22T14:20:41;2.70;1.00
11091;DHT22;5599;52.210;21.046;2023-12-22T14:23:11;2.70;1.00
11091;DHT22;5599;52.210;21.046;2023-12-22T14:25:45;2.60;1.00
11091;DHT22;5599;52.210;21.046;2023-12-22T14:28:15;2.60;1.00
11091;DHT22;5599;52.210;21.046;2023-12-22T14:30:44;2.60;1.00
11091;DHT22;5599;52.210;21.046;2023-12-22T14:33:13;2.60;1.00
11091;DHT22;5599;52.210;21.046;2023-12-22T14:35:42;2.50;1.00
11091;DHT22;5599;52.210;21.046;2023-12-22T14:38:11;2.60;1.00
11091;DHT22;5599;52.210;21.046;2023-12-22T14:40:41;2.50;1.00
11091;DHT22;5599;52.210;21.046;2023-12-22T14:43:11;2.50;1.00
11091;DHT22;5599;52.210;21.046;2023-12-22T14:45:40;2.50;1.00
11091;DHT22;5599;52.210;21.046;2023-12-22T14:48:10;2.50;1.00
11091;DHT22;5599;52.210;21.046;2023-12-22T14:50:39;2.50;1.00
11091;DHT22;5599;52.210;21.046;2023-12-22T14:53:09;2.50;1.00
11091;DHT22;5599;52.210;21.046;2023-12-22T14:55:40;2.50;1.00
11091;DHT22;5599;52.210;21.046;2023-12-22T14:58:12;2.50;1.00
11091;DHT22;5599;52.210;21.046;2023-12-22T15:00:42;2.50;1.00
11091;DHT22;5599;52.210;21.046;2023-12-22T15:03:11;2.60;1.00
11091;DHT22;5599;52.210;21.046;2023-12-22T15:05:41;2.60;1.00
11091;DHT22;5599;52.210;21.046;2023-12-22T15:08:10;2.60;1.00
11091;DHT22;5599;52.210;21.046;2023-12-22T15:10:39;2.60;1.00
11091;DHT22;5599;52.210;21.046;2023-12-22T15:13:09;2.60;1.00
11091;DHT22;5599;52.210;21.046;2023-12-22T15:15:39;2.60;1.00
11091;DHT22;5599;52.210;21.046;2023-12-22T15:18:08;2.60;1.00
11091;DHT22;5599;52.210;21.046;2023-12-22T15:20:40;2.60;1.00
11091;DHT22;5599;52.210;21.046;2023-12-22T15:23:09;2.60;1.00
11091;DHT22;5599;52.210;21.046;2023-12-22T15:25:38;2.60;1.00
11091;DHT22;5599;52.210;21.046;2023-12-22T15:28:07;2.60;1.00
11091;DHT22;5599;52.210;21.046;2023-12-22T15:30:36;2.60;1.00
11091;DHT22;5599;52.210;21.046;2023-12-22T15:33:07;2.60;1.00
11091;DHT22;5599;52.210;21.046;2023-12-22T15:35:36;2.50;1.00
11091;DHT22;5599;52.210;21.046;2023-12-22T15:38:06;2.40;1.00
11091;DHT22;5599;52.210;21.046;2023-12-22T15:40:37;2.50;1.00
11091;DHT22;5599;52.210;21.046;2023-12-22T15:43:07;2.50;1.00
11091;DHT22;5599;52.210;21.046;2023-12-22T15:45:36;2.40;1.00
11091;DHT22;5599;52.210;21.046;2023-12-22T15:48:07;2.40;1.00
11091;DHT22;5599;52.210;21.046;2023-12-22T15:50:36;2.50;1.00
11091;DHT22;5599;52.210;21.046;2023-12-22T15:53:05;2.50;1.00
11091;DHT22;5599;52.210;21.046;2023-12-22T15:55:35;2.50;1.00
11091;DHT22;5599;52.210;21.046;2023-12-22T15:58:04;2.40;1.00
11091;DHT22;5599;52.210;21.046;2023-12-22T16:00:33;2.50;1.00
11091;DHT22;5599;52.210;21.046;2023-12-22T16:03:03;2.40;1.00
11091;DHT22;5599;52.210;21.046;2023-12-22T16:05:34;2.40;1.00
11091;DHT22;5599;52.210;21.046;2023-12-22T16:08:04;2.50;1.00
11091;DHT22;5599;52.210;21.046;2023-12-22T16:10:33;2.50;1.00
11091;DHT22;5599;52.210;21.046;2023-12-22T16:13:02;2.50;1.00
11091;DHT22;5599;52.210;21.046;2023-12-22T16:15:34;2.50;1.00